East Sparta, Ohio
Current Conditions -  °F | °C
As of 5:53 AM on Wednesday 26 Nov 2014 (Local Time) from KPHD Reporting Station
Scattered Clouds Scattered Clouds  
Wind Chill: 27°   Ceiling: Unl
Heat Index: 32°   Visibility: 10mi
Dew Point: 26°   Wind: 5mph
Humidity: 79%   Direction: 30°NNE
Pressure: 30.1"   Gusts: NA
Location:  40.67°N, 81.35°W
Report Text: KPHD 261053Z AUTO 03004KT 10SM FEW032 SCT120 00/M03 A3010 RMK AO2 SLP201 T00001033
Loading
Personal Weather Stations






























Interactive Weather Map New forecast layout! Learn more

10-Day Weather Forecast

Advertisements
Track Severe Weather on mobile